Time;durP1;ratioP1;P1;durP2;ratioP2;P2;SDS_P1;SDS_P2;PMS_P1;PMS_P2;Temp;Humidity;BMP_temperature;BMP_pressure;BME280_temperature;BME280_humidity;BME280_pressure;Samples;Min_cycle;Max_cycle;Signal;HPM_P1;HPM_P2
2022/11/19 00:01:44;;;;;;;10.60;7.97;;;1.60;99.90;;;;;;4942126;28;90418;-32
2022/11/19 00:04:10;;;;;;;10.60;7.72;;;1.50;99.90;;;;;;4942441;28;90984;-33
2022/11/19 00:06:35;;;;;;;9.52;6.30;;;1.50;99.90;;;;;;4941600;28;90228;-33
2022/11/19 00:09:03;;;;;;;10.48;7.45;;;1.50;99.90;;;;;;4941057;28;91075;-32
2022/11/19 00:14:14;;;;;;;10.05;7.97;;;1.60;99.90;;;;;;4942023;28;89085;-30
2022/11/19 00:16:40;;;;;;;9.52;5.53;;;1.60;99.90;;;;;;4941816;28;89985;-30
2022/11/19 00:19:06;;;;;;;9.23;6.10;;;1.60;99.90;;;;;;4941806;28;90297;-31
2022/11/19 00:21:32;;;;;;;9.13;6.20;;;1.60;99.90;;;;;;4941508;28;89455;-31
2022/11/19 00:23:58;;;;;;;7.55;5.55;;;1.60;99.90;;;;;;4940534;28;88540;-33
2022/11/19 00:26:24;;;;;;;8.25;5.82;;;1.60;99.90;;;;;;4941890;28;90195;-34
2022/11/19 00:28:50;;;;;;;8.55;5.53;;;1.50;99.90;;;;;;4941868;28;89695;-31
2022/11/19 00:31:16;;;;;;;8.98;7.10;;;1.50;99.90;;;;;;4940852;28;88200;-31
2022/11/19 00:33:44;;;;;;;6.47;5.82;;;1.50;99.90;;;;;;4923470;28;90178;-35
2022/11/19 00:36:12;;;;;;;7.43;5.22;;;1.40;99.90;;;;;;4941432;28;90276;-34
2022/11/19 00:38:37;;;;;;;7.70;5.40;;;1.40;99.90;;;;;;4941112;28;88612;-34
2022/11/19 00:41:04;;;;;;;9.07;5.68;;;1.40;99.90;;;;;;4941362;28;89517;-33
2022/11/19 00:43:45;;;;;;;8.15;6.75;;;1.30;99.90;;;;;;4941328;28;89097;-32
2022/11/19 00:46:22;;;;;;;5.22;4.30;;;1.30;99.90;;;;;;4941205;28;90160;-31
2022/11/19 00:48:49;;;;;;;6.18;5.38;;;1.30;99.90;;;;;;4941558;28;89751;-30
2022/11/19 00:51:16;;;;;;;8.25;5.97;;;1.30;99.90;;;;;;4941622;28;89133;-31
2022/11/19 00:53:42;;;;;;;7.38;4.93;;;1.20;99.90;;;;;;4940688;28;89133;-31
2022/11/19 00:56:13;;;;;;;5.53;4.25;;;1.20;99.90;;;;;;4940034;28;90047;-31
2022/11/19 00:58:39;;;;;;;6.85;5.47;;;1.20;99.90;;;;;;4940643;28;90761;-32
2022/11/19 01:01:06;;;;;;;5.15;4.65;;;1.10;99.90;;;;;;4941653;28;90316;-33
2022/11/19 01:03:33;;;;;;;8.07;6.40;;;1.10;99.90;;;;;;4940786;28;89107;-31
2022/11/19 01:05:59;;;;;;;5.18;4.57;;;1.00;99.90;;;;;;4940943;28;89991;-30
2022/11/19 01:08:25;;;;;;;6.60;4.68;;;1.00;99.90;;;;;;4940991;28;89797;-32
2022/11/19 01:10:51;;;;;;;6.82;3.72;;;0.90;99.90;;;;;;4940683;28;89686;-33
2022/11/19 01:13:35;;;;;;;6.40;5.68;;;1.00;99.90;;;;;;4940989;28;88304;-33
2022/11/19 01:16:09;;;;;;;4.72;3.83;;;0.90;99.90;;;;;;4940905;28;90407;-31
2022/11/19 01:18:36;;;;;;;7.10;5.38;;;1.00;99.90;;;;;;4940453;28;89921;-32
2022/11/19 01:21:02;;;;;;;7.40;6.43;;;0.90;99.90;;;;;;4940818;28;90988;-32
2022/11/19 01:23:28;;;;;;;6.15;5.55;;;1.00;99.90;;;;;;4940138;28;89423;-30
2022/11/19 01:25:53;;;;;;;7.80;4.93;;;0.90;99.90;;;;;;4940984;28;89146;-34
2022/11/19 01:28:19;;;;;;;6.57;4.35;;;0.90;99.90;;;;;;4940231;28;89962;-33
2022/11/19 01:30:45;;;;;;;5.78;5.10;;;0.90;99.90;;;;;;4940246;28;89907;-33
2022/11/19 01:33:11;;;;;;;8.52;5.43;;;0.90;99.90;;;;;;4940917;28;89311;-31
2022/11/19 01:35:36;;;;;;;9.07;6.05;;;0.80;99.90;;;;;;4939526;28;89690;-31
2022/11/19 01:38:03;;;;;;;7.72;4.97;;;0.70;99.90;;;;;;4940303;28;90129;-32
2022/11/19 01:40:29;;;;;;;6.57;4.10;;;0.80;99.90;;;;;;4940877;28;89405;-30
2022/11/19 01:42:55;;;;;;;6.18;4.90;;;0.80;99.90;;;;;;4940369;28;89590;-35
2022/11/19 01:45:32;;;;;;;7.03;4.30;;;0.80;99.90;;;;;;4941318;28;90082;-31
2022/11/19 01:48:22;;;;;;;7.55;5.75;;;0.80;99.90;;;;;;4939526;28;90650;-34
2022/11/19 01:50:53;;;;;;;8.05;6.15;;;0.70;99.90;;;;;;4940794;28;90022;-30
2022/11/19 01:53:20;;;;;;;8.07;5.95;;;0.60;99.90;;;;;;4940589;28;89142;-31
2022/11/19 01:55:47;;;;;;;7.32;5.28;;;0.50;99.90;;;;;;4939585;28;90379;-30
2022/11/19 01:58:19;;;;;;;6.18;5.57;;;0.50;99.90;;;;;;4940195;28;89649;-30
2022/11/19 02:00:45;;;;;;;8.73;5.95;;;0.60;99.90;;;;;;4939619;28;89467;-30
2022/11/19 02:03:12;;;;;;;7.85;5.60;;;0.50;99.90;;;;;;4940363;28;88514;-33
2022/11/19 02:05:40;;;;;;;9.50;5.40;;;0.50;99.90;;;;;;4940253;28;90398;-32
2022/11/19 02:08:08;;;;;;;9.27;5.50;;;0.50;99.90;;;;;;4940498;28;89838;-31
2022/11/19 02:10:44;;;;;;;8.35;5.72;;;0.50;99.90;;;;;;4938833;28;90836;-31
2022/11/19 02:13:37;;;;;;;7.57;6.07;;;0.50;99.90;;;;;;4939221;28;90000;-33
2022/11/19 02:16:09;;;;;;;7.38;5.70;;;0.40;99.90;;;;;;4940258;28;90187;-30
2022/11/19 02:18:46;;;;;;;8.13;5.78;;;0.30;99.90;;;;;;4939482;28;89803;-32
2022/11/19 02:21:37;;;;;;;8.30;6.60;;;0.40;99.90;;;;;;4940285;28;89557;-31
2022/11/19 02:24:13;;;;;;;10.93;5.88;;;0.40;99.90;;;;;;4939821;28;89521;-32
2022/11/19 02:26:56;;;;;;;7.63;5.88;;;0.30;99.90;;;;;;4940080;28;90412;-31
2022/11/19 02:29:54;;;;;;;7.63;5.75;;;0.30;99.90;;;;;;4939455;28;89797;-31
2022/11/19 02:32:48;;;;;;;7.03;6.32;;;0.30;99.90;;;;;;4939465;28;89837;-33
2022/11/19 02:35:23;;;;;;;7.38;4.60;;;0.20;99.90;;;;;;4939596;28;88700;-34
2022/11/19 02:38:08;;;;;;;7.75;6.00;;;0.20;99.90;;;;;;4939605;28;90059;-33
2022/11/19 02:40:40;;;;;;;9.00;6.28;;;0.10;99.90;;;;;;4937108;28;90853;-33
2022/11/19 02:43:17;;;;;;;7.10;5.50;;;0.20;99.90;;;;;;4939392;28;90187;-31
2022/11/19 02:45:50;;;;;;;6.22;5.40;;;0.20;99.90;;;;;;4940094;28;89061;-32
2022/11/19 02:48:22;;;;;;;6.32;5.72;;;0.20;99.90;;;;;;4942282;28;90370;-32
2022/11/19 02:50:58;;;;;;;8.88;6.95;;;0.30;99.90;;;;;;4943497;28;89813;-32
2022/11/19 02:53:24;;;;;;;7.70;4.55;;;0.20;99.90;;;;;;4942335;28;89286;-32
2022/11/19 03:06:54;;;;;;;5.45;3.97;;;0.10;99.90;;;;;;4942687;28;89824;-35
2022/11/19 03:09:21;;;;;;;7.38;4.50;;;0.20;99.90;;;;;;4943065;28;90185;-31
2022/11/19 03:11:54;;;;;;;7.18;4.80;;;0.10;99.90;;;;;;4942058;28;89816;-29
2022/11/19 03:17:50;;;;;;;6.47;5.25;;;0.00;99.90;;;;;;4942471;28;89823;-31
2022/11/19 03:20:21;;;;;;;5.65;4.13;;;0.00;99.90;;;;;;4901852;28;90071;-32
2022/11/19 03:22:53;;;;;;;5.88;5.00;;;0.10;99.90;;;;;;4942745;28;89856;-30
2022/11/19 03:25:30;;;;;;;4.82;3.42;;;0.10;99.90;;;;;;4942535;28;89611;-35
2022/11/19 03:28:02;;;;;;;7.97;5.37;;;0.10;99.90;;;;;;4943327;28;88986;-31
2022/11/19 03:30:29;;;;;;;7.20;5.60;;;0.00;99.90;;;;;;4941819;28;90351;-30
2022/11/19 03:33:18;;;;;;;7.10;4.55;;;0.00;99.90;;;;;;4942203;28;91059;-32
2022/11/19 03:35:48;;;;;;;4.88;4.38;;;-0.10;99.90;;;;;;4942495;28;89076;-31
2022/11/19 03:38:19;;;;;;;7.15;6.43;;;-0.10;99.90;;;;;;4943088;28;89143;-34
2022/11/19 03:40:47;;;;;;;7.90;4.95;;;-0.10;99.90;;;;;;4941479;28;90498;-32
2022/11/19 03:43:16;;;;;;;6.53;4.32;;;-0.10;99.90;;;;;;4942175;28;89472;-33
2022/11/19 03:45:44;;;;;;;8.40;5.28;;;0.00;99.90;;;;;;4942153;28;89401;-34
2022/11/19 03:48:15;;;;;;;6.18;5.13;;;-0.10;99.90;;;;;;4942846;28;89236;-32
2022/11/19 03:50:58;;;;;;;6.72;5.70;;;-0.10;99.90;;;;;;4943071;28;90597;-30
2022/11/19 03:53:26;;;;;;;4.85;4.35;;;-0.10;99.90;;;;;;4930332;28;89945;-31
2022/11/19 03:56:02;;;;;;;8.73;5.40;;;-0.10;99.90;;;;;;4941420;28;89848;-31
2022/11/19 03:58:28;;;;;;;8.60;5.93;;;-0.20;99.90;;;;;;4941774;28;89579;-33
2022/11/19 04:00:54;;;;;;;6.43;5.72;;;-0.20;99.90;;;;;;4942309;28;90614;-32
2022/11/19 04:03:20;;;;;;;6.82;6.30;;;-0.20;99.90;;;;;;4942388;28;89635;-34
2022/11/19 04:05:45;;;;;;;7.93;5.07;;;-0.20;99.90;;;;;;4941666;28;89525;-31
2022/11/19 04:08:11;;;;;;;6.90;5.82;;;-0.20;99.90;;;;;;4941620;28;89873;-30
2022/11/19 04:10:37;;;;;;;7.20;5.18;;;-0.20;99.90;;;;;;4941823;28;90197;-29
2022/11/19 04:13:02;;;;;;;6.72;5.00;;;-0.30;99.90;;;;;;4941166;28;89947;-31
2022/11/19 04:15:28;;;;;;;5.38;4.88;;;-0.30;99.90;;;;;;4924761;28;89031;-33
2022/11/19 04:17:53;;;;;;;6.10;5.57;;;-0.30;99.90;;;;;;4942030;28;89990;-33
2022/11/19 04:20:19;;;;;;;4.88;4.47;;;-0.20;99.90;;;;;;4941100;28;90463;-34
2022/11/19 04:22:45;;;;;;;6.78;5.40;;;-0.30;99.90;;;;;;4941749;28;90248;-30
2022/11/19 04:25:10;;;;;;;8.20;5.55;;;-0.40;99.90;;;;;;4941415;28;90615;-31
2022/11/19 04:27:36;;;;;;;6.93;5.05;;;-0.40;99.90;;;;;;4942064;28;89165;-30
2022/11/19 04:30:02;;;;;;;9.40;5.55;;;-0.40;99.90;;;;;;4940834;28;89780;-31
2022/11/19 04:32:27;;;;;;;7.70;5.75;;;-0.40;99.90;;;;;;4941179;28;89734;-30
2022/11/19 04:34:53;;;;;;;7.07;5.13;;;-0.40;99.90;;;;;;4941375;28;90122;-32
2022/11/19 04:37:19;;;;;;;5.80;4.60;;;-0.40;99.90;;;;;;4941466;28;89559;-32
2022/11/19 04:39:44;;;;;;;5.55;4.97;;;-0.40;99.90;;;;;;4941767;28;90059;-32
2022/11/19 04:42:10;;;;;;;7.10;5.72;;;-0.30;99.90;;;;;;4940809;28;89903;-30
2022/11/19 04:44:35;;;;;;;5.72;4.57;;;-0.40;99.90;;;;;;4941791;28;89379;-32
2022/11/19 04:47:01;;;;;;;7.45;6.57;;;-0.40;99.90;;;;;;4940645;28;90011;-32
2022/11/19 04:49:27;;;;;;;6.20;4.95;;;-0.50;99.90;;;;;;4941071;28;90086;-32
2022/11/19 04:51:52;;;;;;;6.47;5.10;;;-0.40;99.90;;;;;;4941213;28;89891;-31
2022/11/19 04:54:18;;;;;;;7.68;5.38;;;-0.50;99.90;;;;;;4941029;28;88947;-32
2022/11/19 04:56:43;;;;;;;8.35;5.90;;;-0.50;99.90;;;;;;4941343;28;89232;-30
2022/11/19 04:59:09;;;;;;;9.43;5.63;;;-0.50;99.90;;;;;;4940986;28;90182;-32
2022/11/19 05:01:34;;;;;;;5.68;4.60;;;-0.50;99.90;;;;;;4941004;28;89809;-34
2022/11/19 05:04:00;;;;;;;6.43;5.72;;;-0.60;99.90;;;;;;4940732;28;89638;-31
2022/11/19 05:06:26;;;;;;;8.60;5.53;;;-0.60;99.90;;;;;;4940838;28;89969;-34
2022/11/19 05:08:51;;;;;;;6.07;5.47;;;-0.60;99.90;;;;;;4941152;28;90286;-31
2022/11/19 05:11:17;;;;;;;6.88;5.82;;;-0.60;99.90;;;;;;4939645;28;90428;-33
2022/11/19 05:13:42;;;;;;;7.00;4.88;;;-0.60;99.90;;;;;;4937554;28;90394;-29
2022/11/19 05:16:08;;;;;;;6.00;5.38;;;-0.60;99.90;;;;;;4941247;28;88820;-31
2022/11/19 05:18:33;;;;;;;8.93;6.63;;;-0.60;99.90;;;;;;4940308;28;90989;-30
2022/11/19 05:20:59;;;;;;;8.70;6.95;;;-0.70;99.90;;;;;;4940497;28;88868;-30
2022/11/19 05:23:25;;;;;;;10.73;7.00;;;-0.80;99.90;;;;;;4940788;28;89106;-35
2022/11/19 05:25:50;;;;;;;7.82;6.35;;;-0.80;99.90;;;;;;4941220;28;89545;-31
2022/11/19 05:28:16;;;;;;;10.27;6.05;;;-0.90;99.90;;;;;;4940068;28;90116;-34
2022/11/19 05:30:42;;;;;;;10.13;6.35;;;-0.90;99.90;;;;;;4940590;28;89410;-30
2022/11/19 05:33:08;;;;;;;8.82;7.10;;;-0.90;99.90;;;;;;4941313;28;90167;-30
2022/11/19 05:35:33;;;;;;;11.05;8.77;;;-0.90;99.90;;;;;;4940471;28;90466;-31
2022/11/19 05:37:59;;;;;;;8.55;6.13;;;-1.00;99.90;;;;;;4940223;28;90649;-35
2022/11/19 05:40:25;;;;;;;9.27;7.10;;;-0.90;99.90;;;;;;4940065;28;89993;-33
2022/11/19 05:42:50;;;;;;;6.05;5.40;;;-0.90;99.90;;;;;;4940777;28;89455;-33
2022/11/19 05:45:16;;;;;;;10.98;7.28;;;-0.90;99.90;;;;;;4940729;28;87580;-30
2022/11/19 05:47:42;;;;;;;14.88;7.18;;;-1.00;99.90;;;;;;4940378;28;90321;-30
2022/11/19 05:50:07;;;;;;;8.73;5.38;;;-0.90;99.90;;;;;;4940071;28;90328;-32
2022/11/19 05:52:33;;;;;;;11.18;7.28;;;-0.90;99.90;;;;;;4940462;28;89866;-32
2022/11/19 05:54:59;;;;;;;10.77;7.45;;;-0.90;99.90;;;;;;4940666;28;90427;-31
2022/11/19 05:57:24;;;;;;;11.82;8.35;;;-0.90;99.90;;;;;;4940417;28;90481;-34
2022/11/19 05:59:50;;;;;;;11.93;10.10;;;-1.00;99.90;;;;;;4939941;28;90112;-31
2022/11/19 06:02:15;;;;;;;11.00;8.32;;;-1.00;99.90;;;;;;4939306;28;91741;-30
2022/11/19 06:04:41;;;;;;;12.05;9.07;;;-1.00;99.90;;;;;;4939931;28;89439;-31
2022/11/19 06:07:07;;;;;;;11.98;8.02;;;-1.00;99.90;;;;;;4940137;28;89689;-31
2022/11/19 06:09:32;;;;;;;11.05;8.93;;;-1.00;99.90;;;;;;4940442;28;89673;-32
2022/11/19 06:11:58;;;;;;;12.30;9.50;;;-1.00;99.90;;;;;;4940622;28;89453;-32
2022/11/19 06:14:25;;;;;;;10.50;7.63;;;-1.10;99.90;;;;;;4939706;28;88554;-34
2022/11/19 06:16:56;;;;;;;7.85;6.75;;;-1.10;99.90;;;;;;4940390;28;90545;-33
2022/11/19 06:19:22;;;;;;;14.18;8.00;;;-1.20;99.90;;;;;;4940580;28;90403;-29
2022/11/19 06:21:48;;;;;;;11.23;8.88;;;-1.10;99.90;;;;;;4940041;28;90048;-32
2022/11/19 06:24:14;;;;;;;11.23;7.40;;;-1.10;99.90;;;;;;4940106;28;90145;-31
2022/11/19 06:26:39;;;;;;;11.00;8.25;;;-1.10;99.90;;;;;;4939618;28;90008;-32
2022/11/19 06:29:06;;;;;;;14.45;9.93;;;-1.10;99.90;;;;;;4939758;28;90082;-30
2022/11/19 06:31:31;;;;;;;13.82;9.60;;;-1.10;99.90;;;;;;4939523;28;89524;-35
2022/11/19 06:33:57;;;;;;;12.65;10.02;;;-1.20;99.90;;;;;;4906475;28;89007;-31
2022/11/19 06:36:23;;;;;;;11.77;9.18;;;-1.20;99.90;;;;;;4938946;28;90789;-32
2022/11/19 06:38:49;;;;;;;9.85;7.47;;;-1.10;99.90;;;;;;4939828;28;90667;-31
2022/11/19 06:41:15;;;;;;;8.88;7.90;;;-1.20;99.90;;;;;;4939720;28;89812;-30
2022/11/19 06:43:41;;;;;;;10.85;7.35;;;-1.20;99.90;;;;;;4939552;28;89232;-35
2022/11/19 06:46:07;;;;;;;11.57;8.52;;;-1.20;99.90;;;;;;4940472;28;90608;-31
2022/11/19 06:48:33;;;;;;;14.30;10.30;;;-1.30;99.90;;;;;;4938500;28;90539;-30
2022/11/19 06:51:00;;;;;;;9.80;8.18;;;-1.30;99.90;;;;;;4938967;28;90654;-33
2022/11/19 06:53:26;;;;;;;12.90;10.25;;;-1.40;99.90;;;;;;4939549;28;90459;-32
2022/11/19 06:56:00;;;;;;;10.20;8.90;;;-1.30;99.90;;;;;;4938390;28;90397;-28
2022/11/19 06:58:26;;;;;;;12.23;8.55;;;-1.30;99.90;;;;;;4940193;28;90384;-31
2022/11/19 07:00:52;;;;;;;10.88;7.68;;;-1.30;99.90;;;;;;4939151;28;89954;-30
2022/11/19 07:03:18;;;;;;;14.35;9.82;;;-1.30;99.90;;;;;;4940514;28;88937;-32
2022/11/19 07:05:44;;;;;;;13.13;8.60;;;-1.30;99.90;;;;;;4939504;28;91428;-31
2022/11/19 07:08:09;;;;;;;13.95;10.00;;;-1.40;99.90;;;;;;4939924;28;89600;-32
2022/11/19 07:10:35;;;;;;;17.80;9.82;;;-1.50;99.90;;;;;;4939166;28;89766;-31
2022/11/19 07:13:01;;;;;;;15.88;14.15;;;-1.50;99.90;;;;;;4938154;28;89748;-31
2022/11/19 07:15:26;;;;;;;12.63;7.97;;;-1.50;99.90;;;;;;4938123;28;90675;-32
2022/11/19 07:17:53;;;;;;;11.60;7.28;;;-1.40;99.90;;;;;;4938953;28;89058;-31
2022/11/19 07:20:19;;;;;;;16.98;11.68;;;-1.40;99.90;;;;;;4938705;28;89112;-31
2022/11/19 07:22:44;;;;;;;10.77;8.82;;;-1.40;99.90;;;;;;4939016;28;88218;-31
2022/11/19 07:25:13;;;;;;;13.23;10.07;;;-1.40;99.90;;;;;;4938948;28;90136;-33
2022/11/19 07:27:42;;;;;;;13.23;9.85;;;-1.40;99.90;;;;;;4937575;28;89544;-33
2022/11/19 07:30:08;;;;;;;;;;;-1.40;99.90;;;;;;4939774;28;90583;-30
2022/11/19 07:32:33;;;;;;;15.70;9.63;;;-1.40;99.90;;;;;;4940943;28;89509;-30
2022/11/19 07:34:59;;;;;;;13.85;9.40;;;-1.40;99.90;;;;;;4941862;28;90221;-31
2022/11/19 07:37:24;;;;;;;14.77;11.23;;;-1.40;99.90;;;;;;4941269;28;89883;-32
2022/11/19 07:39:50;;;;;;;12.25;9.77;;;-1.40;99.90;;;;;;4941400;28;90706;-32
2022/11/19 07:45:01;;;;;;;14.75;9.07;;;-1.40;99.90;;;;;;4941932;28;90244;-30
2022/11/19 07:47:27;;;;;;;13.05;9.50;;;-1.40;99.90;;;;;;4941555;28;89267;-30
2022/11/19 07:49:53;;;;;;;15.48;10.23;;;-1.40;99.90;;;;;;4943166;28;89665;-32
2022/11/19 07:52:20;;;;;;;15.25;10.43;;;-1.40;99.90;;;;;;4941224;28;89234;-33
2022/11/19 07:54:45;;;;;;;12.48;8.23;;;-1.40;99.90;;;;;;4943536;28;89882;-35
2022/11/19 07:57:11;;;;;;;14.55;9.05;;;-1.30;99.90;;;;;;4945617;28;89388;-32
2022/11/19 07:59:37;;;;;;;12.90;9.85;;;-1.20;99.90;;;;;;4946853;28;89720;-30
2022/11/19 08:02:03;;;;;;;12.77;10.07;;;-1.20;99.90;;;;;;4946521;28;89879;-33
2022/11/19 08:04:28;;;;;;;12.02;9.85;;;-1.30;99.90;;;;;;4943208;28;90255;-33
2022/11/19 08:06:54;;;;;;;16.30;12.40;;;-1.30;99.90;;;;;;4942809;28;89749;-33
2022/11/19 08:09:20;;;;;;;11.10;8.43;;;-1.30;99.90;;;;;;4941948;28;90149;-30
2022/11/19 08:11:45;;;;;;;14.00;9.35;;;-1.20;99.90;;;;;;4943025;28;88983;-31
2022/11/19 08:14:12;;;;;;;13.70;10.13;;;-1.20;99.90;;;;;;4933470;28;89815;-33
2022/11/19 08:19:22;;;;;;;8.55;7.55;;;-1.10;99.90;;;;;;4934283;28;89597;-30
2022/11/19 08:21:48;;;;;;;12.82;8.82;;;-1.10;99.90;;;;;;4941934;28;89221;-32
2022/11/19 08:24:15;;;;;;;13.40;9.77;;;-0.90;99.90;;;;;;4944867;28;90513;-29
2022/11/19 08:26:41;;;;;;;16.47;10.33;;;-1.00;99.90;;;;;;4948998;28;90426;-30
2022/11/19 08:29:07;;;;;;;15.93;9.95;;;-0.90;99.90;;;;;;4948632;28;91066;-31
2022/11/19 08:31:33;;;;;;;11.55;8.85;;;-0.80;99.90;;;;;;4944616;28;89215;-32
2022/11/19 08:34:01;;;;;;;12.88;9.57;;;-0.80;99.90;;;;;;4942192;28;89632;-33
2022/11/19 08:36:26;;;;;;;17.83;11.88;;;-0.80;99.90;;;;;;4940895;28;89939;-30
2022/11/19 08:38:56;;;;;;;16.95;12.70;;;-0.90;99.90;;;;;;4940331;28;89852;-32
2022/11/19 08:44:06;;;;;;;12.35;8.73;;;-0.70;99.90;;;;;;4940575;28;90265;-32
2022/11/19 08:46:31;;;;;;;15.52;10.35;;;-0.60;99.90;;;;;;4939199;28;89484;-33
2022/11/19 08:48:57;;;;;;;15.68;10.45;;;-0.50;99.90;;;;;;4939590;28;89730;-31
2022/11/19 08:51:23;;;;;;;15.70;11.90;;;-0.40;99.90;;;;;;4939088;28;89855;-32
2022/11/19 08:53:51;;;;;;;14.65;10.75;;;-0.30;99.90;;;;;;4943006;28;88585;-31
2022/11/19 08:56:17;;;;;;;13.93;11.55;;;-0.40;99.90;;;;;;4941366;28;89167;-30
2022/11/19 08:58:43;;;;;;;12.77;9.80;;;-0.20;99.90;;;;;;4943778;28;89638;-32
2022/11/19 09:01:13;;;;;;;14.40;9.27;;;-0.20;99.90;;;;;;4948663;28;89580;-32
2022/11/19 09:03:39;;;;;;;13.80;10.43;;;-0.10;99.90;;;;;;4950344;28;90306;-33
2022/11/19 09:06:05;;;;;;;18.55;12.98;;;0.00;99.90;;;;;;4940358;28;89698;-31
2022/11/19 09:08:32;;;;;;;10.98;8.70;;;0.00;99.90;;;;;;4945409;28;89391;-32
2022/11/19 09:10:57;;;;;;;13.20;9.00;;;0.20;99.90;;;;;;4943650;28;88114;-33
2022/11/19 09:13:23;;;;;;;12.68;10.82;;;0.10;99.90;;;;;;4983934;22;89979;-36
2022/11/19 09:15:50;;;;;;;11.35;9.95;;;0.20;99.90;;;;;;4942203;28;90832;-32
2022/11/19 09:18:17;;;;;;;13.10;10.25;;;0.20;99.90;;;;;;4941375;28;87983;-31
2022/11/19 09:20:43;;;;;;;15.48;11.25;;;0.20;99.90;;;;;;4940659;28;88619;-32
2022/11/19 09:23:08;;;;;;;12.27;8.68;;;0.20;99.90;;;;;;4941603;28;90573;-32
2022/11/19 09:25:34;;;;;;;12.68;9.68;;;0.20;99.90;;;;;;4941137;28;90366;-31
2022/11/19 09:28:00;;;;;;;11.40;9.52;;;0.30;99.90;;;;;;4943617;28;89347;-32
2022/11/19 09:30:26;;;;;;;13.48;10.25;;;0.30;99.90;;;;;;4944978;28;88616;-34
2022/11/19 09:32:51;;;;;;;15.20;8.55;;;0.40;99.90;;;;;;4944200;28;89093;-31
2022/11/19 09:35:17;;;;;;;13.75;10.65;;;0.50;99.90;;;;;;4944465;28;89669;-31
2022/11/19 09:37:43;;;;;;;12.95;10.00;;;0.50;99.90;;;;;;4940098;28;89579;-32
2022/11/19 09:40:16;;;;;;;10.57;8.43;;;0.40;99.90;;;;;;4938971;28;89760;-32
2022/11/19 09:43:00;;;;;;;13.13;9.80;;;0.60;99.90;;;;;;4938431;28;90311;-30
2022/11/19 09:46:06;;;;;;;15.95;12.32;;;0.50;99.90;;;;;;4937319;28;89059;-34
2022/11/19 09:48:34;;;;;;;13.57;11.15;;;0.50;99.90;;;;;;4933740;28;89618;-35
2022/11/19 09:51:02;;;;;;;;;;;0.60;99.90;;;;;;4938373;28;88643;-33
2022/11/19 09:53:34;;;;;;;10.00;7.22;;;0.60;99.90;;;;;;4939427;28;90310;-30
2022/11/19 09:56:01;;;;;;;17.10;12.93;;;0.60;99.90;;;;;;4941679;28;88300;-32
2022/11/19 09:58:44;;;;;;;13.93;9.23;;;0.70;99.90;;;;;;4941879;28;89600;-34
2022/11/19 10:01:16;;;;;;;13.48;11.75;;;0.70;99.90;;;;;;4928058;28;88617;-34
2022/11/19 10:03:49;;;;;;;13.30;9.68;;;0.80;99.90;;;;;;4942598;28;90101;-34
2022/11/19 10:06:20;;;;;;;14.70;11.25;;;0.80;99.90;;;;;;4941176;28;90525;-31
2022/11/19 10:09:16;;;;;;;14.13;9.77;;;0.80;99.90;;;;;;4936661;28;90483;-32
2022/11/19 10:12:24;;;;;;;11.80;9.40;;;0.90;99.90;;;;;;4937291;28;89426;-31
2022/11/19 10:15:15;;;;;;;14.50;9.65;;;1.00;99.90;;;;;;4876722;28;88950;-32
2022/11/19 10:17:58;;;;;;;12.25;10.20;;;1.00;99.90;;;;;;4859726;28;89852;-30
2022/11/19 10:20:47;;;;;;;10.93;8.95;;;1.10;99.90;;;;;;4914062;28;89317;-33
2022/11/19 10:23:30;;;;;;;11.93;10.27;;;1.10;99.90;;;;;;4937787;28;90060;-31
2022/11/19 10:26:08;;;;;;;12.05;10.65;;;1.10;99.90;;;;;;4935946;28;89909;-32
2022/11/19 10:28:39;;;;;;;13.93;10.75;;;1.20;99.90;;;;;;4936245;28;89535;-34
2022/11/19 10:31:13;;;;;;;12.43;9.48;;;1.10;99.90;;;;;;4936705;28;90241;-32
2022/11/19 10:33:54;;;;;;;11.98;8.55;;;1.20;99.90;;;;;;4938443;28;89327;-32
2022/11/19 10:36:33;;;;;;;12.13;9.23;;;1.20;99.90;;;;;;4945896;28;90129;-30
2022/11/19 10:39:11;;;;;;;11.75;6.50;;;1.30;99.90;;;;;;4947852;28;89524;-30
2022/11/19 10:42:16;;;;;;;10.98;9.02;;;1.40;99.90;;;;;;4943655;28;88466;-30
2022/11/19 10:45:03;;;;;;;9.75;6.88;;;1.40;99.90;;;;;;4935088;28;88094;-32
2022/11/19 10:47:46;;;;;;;10.90;7.00;;;1.50;99.90;;;;;;4942968;28;90183;-33
2022/11/19 10:50:22;;;;;;;9.82;7.95;;;1.50;99.90;;;;;;4944820;28;90573;-34
2022/11/19 10:52:55;;;;;;;11.93;8.00;;;1.50;99.90;;;;;;4941580;28;90319;-32
2022/11/19 10:55:30;;;;;;;13.40;8.10;;;1.50;99.90;;;;;;4923354;28;88695;-31
2022/11/19 10:58:23;;;;;;;15.07;8.38;;;1.60;99.90;;;;;;4942222;28;89887;-30
2022/11/19 11:00:52;;;;;;;11.93;8.75;;;1.60;99.90;;;;;;4945149;28;89705;-33
2022/11/19 11:03:22;;;;;;;;;;;1.60;99.90;;;;;;4946467;28;90331;-32
2022/11/19 11:05:58;;;;;;;11.68;8.38;;;1.60;99.90;;;;;;4943764;28;87721;-31
2022/11/19 11:08:24;;;;;;;12.13;8.93;;;1.60;99.90;;;;;;4941357;28;90434;-33
2022/11/19 11:10:50;;;;;;;10.00;8.77;;;1.60;99.90;;;;;;4944653;28;89526;-31
2022/11/19 11:16:18;;;;;;;9.90;8.90;;;1.70;99.90;;;;;;4947745;28;88697;-32
2022/11/19 11:18:46;;;;;;;12.35;8.77;;;1.80;99.90;;;;;;4946802;28;90011;-35
2022/11/19 11:21:50;;;;;;;10.52;9.43;;;1.80;99.90;;;;;;4944475;28;89581;-30
2022/11/19 11:24:16;;;;;;;12.93;9.50;;;1.80;99.90;;;;;;4889292;28;89721;-32
2022/11/19 11:26:42;;;;;;;11.23;9.40;;;1.90;99.90;;;;;;4931208;28;89169;-31
2022/11/19 11:29:11;;;;;;;11.65;9.35;;;1.90;99.90;;;;;;4940247;28;90096;-29
2022/11/19 11:31:40;;;;;;;;;;;1.90;99.90;;;;;;4940192;28;89671;-31
2022/11/19 11:34:26;;;;;;;9.77;8.15;;;2.00;99.90;;;;;;4941319;28;89695;-32
2022/11/19 11:36:53;;;;;;;13.60;9.45;;;2.00;99.90;;;;;;4940072;28;88767;-31
2022/11/19 11:39:24;;;;;;;10.93;8.68;;;2.00;99.90;;;;;;4940080;28;91227;-33
2022/11/19 11:41:49;;;;;;;9.40;8.43;;;2.10;99.90;;;;;;4948527;28;88588;-33
2022/11/19 11:44:18;;;;;;;10.85;9.10;;;2.10;99.90;;;;;;4948622;28;89492;-31
2022/11/19 11:46:49;;;;;;;10.45;8.32;;;2.10;99.90;;;;;;4947797;28;87651;-31
2022/11/19 11:49:21;;;;;;;8.82;7.75;;;2.20;99.90;;;;;;4947083;28;90233;-31
2022/11/19 11:51:58;;;;;;;8.93;6.30;;;2.20;99.90;;;;;;4944260;28;90632;-32
2022/11/19 11:54:24;;;;;;;10.07;8.40;;;2.30;99.90;;;;;;4942177;28;90440;-34
2022/11/19 11:56:49;;;;;;;8.88;7.63;;;2.30;99.90;;;;;;4944290;28;89546;-31
2022/11/19 11:59:28;;;;;;;12.45;9.30;;;2.30;99.90;;;;;;4944396;28;90324;-34
2022/11/19 12:02:04;;;;;;;11.48;9.02;;;2.30;99.90;;;;;;4948626;28;89598;-32
2022/11/19 12:04:30;;;;;;;11.00;9.35;;;2.30;99.90;;;;;;4948451;28;89045;-35
2022/11/19 12:07:17;;;;;;;10.48;8.55;;;2.30;99.90;;;;;;4944673;28;88643;-32
2022/11/19 12:09:54;;;;;;;9.43;8.07;;;2.30;99.90;;;;;;4948404;28;89680;-30
2022/11/19 12:12:20;;;;;;;9.02;7.85;;;2.40;99.90;;;;;;4942620;28;88489;-33
2022/11/19 12:15:02;;;;;;;9.70;7.75;;;2.40;99.90;;;;;;4944386;28;90268;-33
2022/11/19 12:17:48;;;;;;;8.93;8.07;;;2.40;99.90;;;;;;4931857;28;90169;-31
2022/11/19 12:20:31;;;;;;;9.52;8.57;;;2.40;99.90;;;;;;4945270;28;89294;-31
2022/11/19 12:23:24;;;;;;;10.88;7.85;;;2.40;99.90;;;;;;4943055;28;91381;-34
2022/11/19 12:25:52;;;;;;;8.80;7.00;;;2.50;99.90;;;;;;4944017;28;90762;-32
2022/11/19 12:28:40;;;;;;;10.35;7.75;;;2.50;99.90;;;;;;4943359;28;89160;-32
2022/11/19 12:31:24;;;;;;;8.50;7.60;;;2.60;99.90;;;;;;4951434;28;90106;-33
2022/11/19 12:34:03;;;;;;;8.90;7.35;;;2.60;99.90;;;;;;4939938;28;89215;-33
2022/11/19 12:37:15;;;;;;;9.77;7.82;;;2.70;99.90;;;;;;4939078;28;89833;-34
2022/11/19 12:40:04;;;;;;;7.85;7.00;;;2.60;99.90;;;;;;4939127;28;90277;-32
2022/11/19 12:42:51;;;;;;;7.40;6.72;;;2.70;99.90;;;;;;4938369;28;90186;-33
2022/11/19 12:45:35;;;;;;;7.57;6.88;;;2.80;99.90;;;;;;4938789;28;89279;-31
2022/11/19 12:48:46;;;;;;;6.63;6.03;;;2.80;99.90;;;;;;4938592;28;89970;-31
2022/11/19 12:51:18;;;;;;;8.63;5.95;;;2.80;99.90;;;;;;4928290;28;88152;-30
2022/11/19 12:53:58;;;;;;;9.60;7.05;;;2.80;99.90;;;;;;4938711;28;90168;-31
2022/11/19 12:56:30;;;;;;;8.48;6.55;;;2.80;99.90;;;;;;4938645;28;89655;-35
2022/11/19 12:59:17;;;;;;;12.82;8.77;;;2.80;99.90;;;;;;4938970;28;89294;-30
2022/11/19 13:01:47;;;;;;;10.05;7.72;;;2.80;99.90;;;;;;4926425;28;88160;-33
2022/11/19 13:04:37;;;;;;;10.57;7.60;;;2.80;99.90;;;;;;4940929;28;91524;-32
2022/11/19 13:07:13;;;;;;;7.82;6.55;;;2.70;99.90;;;;;;4940359;28;89310;-35
2022/11/19 13:09:47;;;;;;;11.32;8.07;;;2.70;99.90;;;;;;4941496;28;89979;-32
2022/11/19 13:12:20;;;;;;;9.52;7.20;;;2.70;99.90;;;;;;4940883;28;89832;-33
2022/11/19 13:14:51;;;;;;;7.15;6.45;;;2.70;99.90;;;;;;4939301;28;90430;-32
2022/11/19 13:17:20;;;;;;;9.73;7.43;;;2.80;99.90;;;;;;4938708;28;89670;-33
2022/11/19 13:19:47;;;;;;;;;;;2.70;99.90;;;;;;4940436;28;89409;-31
2022/11/19 13:22:26;;;;;;;7.87;6.33;;;2.70;99.90;;;;;;4940693;28;89424;-33
2022/11/19 13:25:33;;;;;;;9.07;7.90;;;2.70;99.90;;;;;;4938026;28;90142;-31
2022/11/19 13:28:01;;;;;;;12.25;9.32;;;2.60;99.90;;;;;;4923464;28;89661;-31
2022/11/19 13:30:28;;;;;;;10.00;7.78;;;2.60;99.90;;;;;;4941586;28;89390;-31
2022/11/19 13:33:13;;;;;;;10.45;7.68;;;2.50;99.90;;;;;;4944216;28;88107;-32
2022/11/19 13:35:45;;;;;;;9.30;8.38;;;2.50;99.90;;;;;;4941201;28;89669;-32